createdAt,value
2023-01-09T00:00:24.749Z,102356.01
2023-01-09T00:03:31.160Z,102359.56
2023-01-09T00:06:36.562Z,102359.56
2023-01-09T00:09:42.043Z,102354.66
2023-01-09T00:12:47.514Z,102352.47
2023-01-09T00:15:56.021Z,102346.70
2023-01-09T00:19:03.447Z,102343.22
2023-01-09T00:22:09.248Z,102343.22
2023-01-09T00:25:16.173Z,102344.98
2023-01-09T00:28:22.571Z,102349.86
2023-01-09T00:31:28.062Z,102344.55
2023-01-09T00:34:33.971Z,102345.39
2023-01-09T00:37:40.153Z,102341.87
2023-01-09T00:40:45.131Z,102338.31
2023-01-09T00:44:04.168Z,102348.91
2023-01-09T00:47:14.170Z,102344.45
2023-01-09T00:50:24.879Z,102355.94
2023-01-09T00:53:32.973Z,102362.13
2023-01-09T00:56:40.768Z,102346.20
2023-01-09T00:59:46.849Z,102345.30
2023-01-09T01:02:52.409Z,102341.38
2023-01-09T01:06:17.050Z,102342.72
2023-01-09T01:09:26.519Z,102339.63
2023-01-09T01:12:32.674Z,102329.01
2023-01-09T01:15:39.364Z,102321.52
2023-01-09T01:18:45.110Z,102312.29
2023-01-09T01:21:50.534Z,102316.72
2023-01-09T01:24:57.627Z,102316.72
2023-01-09T01:28:03.341Z,102308.32
2023-01-09T01:31:11.923Z,102307.87
2023-01-09T01:34:17.965Z,102283.58
2023-01-09T01:37:25.653Z,102283.58
2023-01-09T01:40:32.586Z,102288.44
2023-01-09T01:43:38.969Z,102275.20
2023-01-09T01:46:45.987Z,102275.60
2023-01-09T01:49:52.558Z,102275.59
2023-01-09T01:53:02.340Z,102280.91
2023-01-09T01:56:24.542Z,102291.06
2023-01-09T01:59:44.927Z,102282.73
2023-01-09T02:02:52.753Z,102283.59
2023-01-09T02:05:59.756Z,102282.73
2023-01-09T02:09:07.068Z,102276.09
2023-01-09T02:12:13.430Z,102278.74
2023-01-09T02:15:24.248Z,102269.47
2023-01-09T02:19:08.657Z,102258.38
2023-01-09T02:22:36.311Z,102246.45
2023-01-09T02:26:35.540Z,102246.45
2023-01-09T02:29:59.023Z,102238.99
2023-01-09T02:33:20.936Z,102235.49
2023-01-09T02:36:33.998Z,102237.72
2023-01-09T02:39:49.159Z,102228.88
2023-01-09T02:42:49.257Z,102235.52
2023-01-09T02:45:55.585Z,102250.97
2023-01-09T02:49:01.096Z,102250.97
2023-01-09T02:52:13.204Z,102245.65
2023-01-09T02:55:30.290Z,102243.02
2023-01-09T02:59:11.149Z,102243.91
2023-01-09T03:02:43.563Z,102243.91
2023-01-09T03:05:59.561Z,102235.48
2023-01-09T03:09:10.788Z,102226.67
2023-01-09T03:12:31.901Z,102233.30
2023-01-09T03:15:40.674Z,102231.97
2023-01-09T03:18:46.895Z,102210.36
2023-01-09T03:21:53.349Z,102216.98
2023-01-09T03:24:59.264Z,102220.97
2023-01-09T03:28:10.060Z,102216.55
2023-01-09T03:31:14.827Z,102214.40
2023-01-09T03:34:21.106Z,102214.40
2023-01-09T03:37:27.026Z,102226.30
2023-01-09T03:40:34.173Z,102221.00
2023-01-09T03:43:40.116Z,102220.14
2023-01-09T03:46:47.236Z,102223.66
2023-01-09T03:49:53.657Z,102213.95
2023-01-09T03:53:00.608Z,102218.36
2023-01-09T03:56:11.356Z,102220.59
2023-01-09T03:59:16.347Z,102220.59
2023-01-09T04:02:21.738Z,102220.17
2023-01-09T04:05:27.544Z,102221.47
2023-01-09T04:08:34.685Z,102221.47
2023-01-09T04:11:42.569Z,102224.99
2023-01-09T04:14:48.473Z,102229.86
2023-01-09T04:17:55.393Z,102225.90
2023-01-09T04:21:03.189Z,102218.82
2023-01-09T04:24:10.413Z,102218.78
2023-01-09T04:27:16.037Z,102219.67
2023-01-09T04:30:23.845Z,102219.69
2023-01-09T04:33:29.318Z,102228.48
2023-01-09T04:36:34.221Z,102220.98
2023-01-09T04:39:39.692Z,102220.07
2023-01-09T04:42:47.429Z,102220.08
2023-01-09T04:45:54.097Z,102217.88
2023-01-09T04:48:59.749Z,102223.62
2023-01-09T04:52:06.874Z,102214.38
2023-01-09T04:55:12.246Z,102213.93
2023-01-09T04:58:18.154Z,102210.84
2023-01-09T05:01:24.188Z,102211.26
2023-01-09T05:04:29.898Z,102202.01
2023-01-09T05:07:34.861Z,102205.52
2023-01-09T05:10:41.026Z,102217.89
2023-01-09T05:13:46.142Z,102224.53
2023-01-09T05:16:52.387Z,102218.80
2023-01-09T05:19:58.235Z,102224.55
2023-01-09T05:23:05.056Z,102224.55
2023-01-09T05:26:12.945Z,102211.28
2023-01-09T05:29:19.417Z,102208.17
2023-01-09T05:32:24.403Z,102210.80
2023-01-09T05:35:31.107Z,102201.46
2023-01-09T05:38:38.258Z,102201.46
2023-01-09T05:41:43.812Z,102198.77
2023-01-09T05:44:49.140Z,102206.73
2023-01-09T05:47:54.829Z,102210.77
2023-01-09T05:51:02.239Z,102208.97
2023-01-09T05:54:10.876Z,102219.99
2023-01-09T05:57:17.717Z,102219.99
2023-01-09T06:00:24.598Z,102206.70
2023-01-09T06:03:31.765Z,102190.69
2023-01-09T06:06:38.750Z,102190.69
2023-01-09T06:09:44.929Z,102181.73
2023-01-09T06:12:55.087Z,102181.73
2023-01-09T06:15:57.148Z,102195.34
2023-01-09T06:18:43.044Z,102205.45
2023-01-09T06:21:36.159Z,102203.15
2023-01-09T06:24:27.781Z,102210.64
2023-01-09T06:27:34.895Z,102195.55
2023-01-09T06:30:41.038Z,102205.61
2023-01-09T06:33:46.711Z,102195.43
2023-01-09T06:36:52.922Z,102195.41
2023-01-09T06:40:01.486Z,102188.67
2023-01-09T06:43:12.754Z,102186.85
2023-01-09T06:46:20.733Z,102179.83
2023-01-09T06:49:34.758Z,102174.61
2023-01-09T06:52:42.339Z,102163.20
2023-01-09T06:55:49.286Z,102153.52
2023-01-09T06:58:56.303Z,102150.44
2023-01-09T07:02:01.651Z,102153.08
2023-01-09T07:05:08.845Z,102149.02
2023-01-09T07:08:15.788Z,102163.94
2023-01-09T07:11:24.955Z,102174.82
2023-01-09T07:14:31.205Z,102178.63
2023-01-09T07:17:36.384Z,102168.29
2023-01-09T07:20:42.337Z,102168.61
2023-01-09T07:23:47.800Z,102169.88
2023-01-09T07:26:53.470Z,102165.39
2023-01-09T07:30:00.286Z,102168.31
2023-01-09T07:33:06.513Z,102174.88
2023-01-09T07:36:11.596Z,102173.52
2023-01-09T07:39:17.551Z,102169.12
2023-01-09T07:42:23.834Z,102176.73
2023-01-09T07:45:28.715Z,102164.72
2023-01-09T07:48:35.043Z,102178.80
2023-01-09T07:51:41.677Z,102189.25
2023-01-09T07:54:40.857Z,102195.73
2023-01-09T07:57:27.265Z,102195.68
2023-01-09T08:00:21.479Z,102194.84
2023-01-09T08:03:07.150Z,102192.05
2023-01-09T08:06:03.728Z,102189.80
2023-01-09T08:08:50.784Z,102193.66
2023-01-09T08:11:51.604Z,102187.20
2023-01-09T08:14:39.275Z,102183.91
2023-01-09T08:17:36.527Z,102186.91
2023-01-09T08:20:24.233Z,102182.88
2023-01-09T08:23:18.504Z,102175.64
2023-01-09T08:26:23.453Z,102186.14
2023-01-09T08:29:29.343Z,102162.91
2023-01-09T08:32:35.020Z,102159.19
2023-01-09T08:35:43.586Z,102151.41
2023-01-09T08:38:49.112Z,102147.31
2023-01-09T08:42:13.342Z,102145.51
2023-01-09T08:45:37.909Z,102138.15
2023-01-09T08:48:42.955Z,102140.05
2023-01-09T08:51:47.777Z,102130.86
2023-01-09T08:54:52.617Z,102120.44
2023-01-09T08:58:06.192Z,102123.38
2023-01-09T09:01:12.407Z,102119.30
2023-01-09T09:04:18.008Z,102125.38
2023-01-09T09:07:24.551Z,102121.37
2023-01-09T09:10:34.527Z,102123.98
2023-01-09T09:13:42.247Z,102122.98
2023-01-09T09:16:50.714Z,102123.50
2023-01-09T09:19:56.462Z,102113.38
2023-01-09T09:23:03.652Z,102112.25
2023-01-09T09:26:10.274Z,102110.44
2023-01-09T09:29:16.524Z,102111.73
2023-01-09T09:32:22.419Z,102106.33
2023-01-09T09:35:31.107Z,102114.59
2023-01-09T09:38:35.966Z,102101.52
2023-01-09T09:42:37.475Z,102109.78
2023-01-09T09:46:19.969Z,102096.25
2023-01-09T09:49:29.448Z,102090.75
2023-01-09T09:53:08.459Z,102078.55
2023-01-09T09:56:09.066Z,102088.17
2023-01-09T09:59:31.626Z,102080.21
2023-01-09T10:03:01.100Z,102086.88
2023-01-09T10:06:10.721Z,102088.91
2023-01-09T10:09:52.138Z,102083.89
2023-01-09T10:13:13.082Z,102076.41
2023-01-09T10:16:36.913Z,102070.15
2023-01-09T10:20:06.482Z,102075.27
2023-01-09T10:24:00.344Z,102073.27
2023-01-09T10:27:09.324Z,102068.51
2023-01-09T10:30:33.044Z,102070.51
2023-01-09T10:34:15.722Z,102074.25
2023-01-09T10:37:49.096Z,102070.24
2023-01-09T10:41:07.012Z,102072.42
2023-01-09T10:44:41.937Z,102065.73
2023-01-09T10:47:52.791Z,102063.28
2023-01-09T10:50:57.633Z,102062.29
2023-01-09T10:54:09.574Z,102057.74
2023-01-09T10:57:23.388Z,102049.27
2023-01-09T11:00:32.546Z,102033.63
2023-01-09T11:03:37.727Z,102041.35
2023-01-09T11:07:04.567Z,102053.25
2023-01-09T11:10:22.499Z,102044.34
2023-01-09T11:13:43.336Z,102033.73
2023-01-09T11:16:50.527Z,102044.14
2023-01-09T11:19:56.102Z,102040.06
2023-01-09T11:23:03.792Z,102041.91
2023-01-09T11:26:11.773Z,102037.09
2023-01-09T11:29:36.192Z,102041.81
2023-01-09T11:32:40.792Z,102044.58
2023-01-09T11:35:48.365Z,102038.00
2023-01-09T11:39:11.221Z,102030.09
2023-01-09T11:42:17.673Z,102019.89
2023-01-09T11:45:35.340Z,102021.71
2023-01-09T11:48:49.190Z,102030.09
2023-01-09T11:51:54.528Z,102033.36
2023-01-09T11:55:14.318Z,102022.31
2023-01-09T11:58:39.346Z,102023.93
2023-01-09T12:02:16.233Z,102030.42
2023-01-09T12:05:49.632Z,102013.34
2023-01-09T12:09:28.693Z,102014.25
2023-01-09T12:12:51.500Z,102008.84
2023-01-09T12:16:02.578Z,102013.86
2023-01-09T12:19:50.496Z,102015.33
2023-01-09T12:23:29.825Z,102020.08
2023-01-09T12:26:47.726Z,102010.64
2023-01-09T12:30:27.065Z,102013.89
2023-01-09T12:33:47.513Z,102008.12
2023-01-09T12:37:06.891Z,102006.06
2023-01-09T12:40:25.066Z,102008.47
2023-01-09T12:44:03.450Z,102005.28
2023-01-09T12:47:46.383Z,102006.95
2023-01-09T12:51:35.256Z,102001.42
2023-01-09T12:54:58.451Z,102001.38
2023-01-09T12:58:12.284Z,101998.30
2023-01-09T13:01:24.519Z,101995.89
2023-01-09T13:04:50.601Z,102001.77
2023-01-09T13:08:05.431Z,101996.52
2023-01-09T13:11:22.583Z,102003.98
2023-01-09T13:14:43.397Z,101993.98
2023-01-09T13:17:58.603Z,101996.74
2023-01-09T13:21:10.913Z,101985.47
2023-01-09T13:24:35.595Z,101971.27
2023-01-09T13:27:41.297Z,101968.87
2023-01-09T13:31:16.703Z,101966.03
2023-01-09T13:34:30.709Z,101957.13
2023-01-09T13:37:45.752Z,101952.00
2023-01-09T13:40:52.772Z,101960.88
2023-01-09T13:44:13.805Z,101968.73
2023-01-09T13:47:18.668Z,101970.85
2023-01-09T13:50:37.172Z,101963.83
2023-01-09T13:53:47.035Z,101954.45
2023-01-09T13:57:36.801Z,101960.98
2023-01-09T14:00:54.206Z,101958.19
2023-01-09T14:04:00.834Z,101952.77
2023-01-09T14:07:29.171Z,101955.05
2023-01-09T14:10:47.262Z,101965.60
2023-01-09T14:13:57.506Z,101967.41
2023-01-09T14:17:03.598Z,101961.53
2023-01-09T14:20:12.328Z,101967.41
2023-01-09T14:23:35.300Z,101962.37
2023-01-09T14:26:42.130Z,101964.03
2023-01-09T14:29:58.069Z,101959.55
2023-01-09T14:33:34.603Z,101957.78
2023-01-09T14:36:40.918Z,101959.13
2023-01-09T14:39:47.624Z,101956.39
2023-01-09T14:42:55.104Z,101952.36
2023-01-09T14:46:07.395Z,101955.42
2023-01-09T14:50:03.347Z,101952.96
2023-01-09T14:53:24.475Z,101947.54
2023-01-09T14:56:44.796Z,101952.33
2023-01-09T14:59:52.597Z,101958.52
2023-01-09T15:02:59.860Z,101961.00
2023-01-09T15:06:08.786Z,101959.78
2023-01-09T15:09:38.712Z,101955.76
2023-01-09T15:12:45.546Z,101958.05
2023-01-09T15:15:50.872Z,101959.02
2023-01-09T15:18:56.868Z,101961.69
2023-01-09T15:22:18.734Z,101963.52
2023-01-09T15:25:42.210Z,101965.31
2023-01-09T15:28:48.043Z,101952.91
2023-01-09T15:31:53.594Z,101955.16
2023-01-09T15:35:01.789Z,101954.34
2023-01-09T15:38:09.444Z,101961.09
2023-01-09T15:41:27.319Z,101963.32
2023-01-09T15:44:40.558Z,101971.82
2023-01-09T15:47:47.694Z,101963.83
2023-01-09T15:50:56.191Z,101956.62
2023-01-09T15:54:05.098Z,101960.13
2023-01-09T15:57:41.880Z,101969.57
2023-01-09T16:00:53.040Z,101970.08
2023-01-09T16:03:59.307Z,101974.05
2023-01-09T16:07:07.914Z,101973.59
2023-01-09T16:10:13.370Z,101977.12
2023-01-09T16:13:21.873Z,101975.33
2023-01-09T16:16:27.493Z,101961.47
2023-01-09T16:20:01.381Z,101960.02
2023-01-09T16:23:10.327Z,101964.86
2023-01-09T16:26:23.570Z,101963.46
2023-01-09T16:29:36.515Z,101977.21
2023-01-09T16:32:38.726Z,101975.36
2023-01-09T16:35:35.298Z,101974.53
2023-01-09T16:38:41.917Z,101965.58
2023-01-09T16:42:07.735Z,101968.71
2023-01-09T16:45:13.609Z,101974.02
2023-01-09T16:48:34.068Z,101969.54
2023-01-09T16:51:41.018Z,101964.63
2023-01-09T16:54:46.384Z,101972.79
2023-01-09T16:57:53.656Z,101973.70
2023-01-09T17:01:00.758Z,101965.72
2023-01-09T17:04:08.387Z,101968.06
2023-01-09T17:07:15.441Z,101965.89
2023-01-09T17:10:25.244Z,101964.43
2023-01-09T17:13:30.492Z,101971.56
2023-01-09T17:16:40.953Z,101972.91
2023-01-09T17:19:46.857Z,101972.84
2023-01-09T17:22:52.924Z,101974.91
2023-01-09T17:26:02.510Z,101975.64
2023-01-09T17:29:11.388Z,101970.39
2023-01-09T17:32:17.068Z,101967.94
2023-01-09T17:35:25.632Z,101979.06
2023-01-09T17:38:32.309Z,101974.64
2023-01-09T17:41:38.130Z,101977.73
2023-01-09T17:44:46.370Z,101977.66
2023-01-09T17:47:51.741Z,101979.55
2023-01-09T17:50:58.316Z,101978.89
2023-01-09T17:54:04.412Z,101975.70
2023-01-09T17:57:11.469Z,101976.05
2023-01-09T18:00:18.852Z,101984.42
2023-01-09T18:03:27.889Z,101975.04
2023-01-09T18:06:37.152Z,101965.44
2023-01-09T18:09:44.120Z,101967.80
2023-01-09T18:12:53.134Z,101972.20
2023-01-09T18:16:01.494Z,101966.72
2023-01-09T18:19:07.985Z,101964.09
2023-01-09T18:22:13.966Z,101959.06
2023-01-09T18:25:22.962Z,101964.03
2023-01-09T18:28:30.346Z,101957.78
2023-01-09T18:31:36.289Z,101957.96
2023-01-09T18:34:42.854Z,101957.88
2023-01-09T18:37:50.889Z,101956.59
2023-01-09T18:40:58.485Z,101949.55
2023-01-09T18:44:08.001Z,101951.39
2023-01-09T18:47:14.225Z,101952.02
2023-01-09T18:50:22.242Z,101953.84
2023-01-09T18:53:31.435Z,101967.08
2023-01-09T18:56:37.836Z,101964.34
2023-01-09T18:59:43.796Z,101959.16
2023-01-09T19:02:49.929Z,101959.16
2023-01-09T19:05:56.291Z,101966.57
2023-01-09T19:09:03.515Z,101958.64
2023-01-09T19:12:09.754Z,101955.84
2023-01-09T19:15:19.145Z,101948.11
2023-01-09T19:18:24.600Z,101959.56
2023-01-09T19:21:36.106Z,101966.75
2023-01-09T19:24:40.689Z,101965.92
2023-01-09T19:27:46.438Z,101956.66
2023-01-09T19:30:51.293Z,101954.32
2023-01-09T19:33:58.279Z,101952.36
2023-01-09T19:37:04.000Z,101957.83
2023-01-09T19:40:10.748Z,101961.18
2023-01-09T19:43:16.760Z,101952.63
2023-01-09T19:46:24.207Z,101946.17
2023-01-09T19:49:31.675Z,101946.77
2023-01-09T19:52:38.979Z,101948.19
2023-01-09T19:55:46.883Z,101948.30
2023-01-09T19:58:53.245Z,101962.97
2023-01-09T20:02:00.194Z,101970.11
2023-01-09T20:05:07.932Z,101970.50
2023-01-09T20:08:14.850Z,101963.52
2023-01-09T20:11:21.775Z,101959.28
2023-01-09T20:14:29.438Z,101955.48
2023-01-09T20:17:36.498Z,101946.72
2023-01-09T20:20:43.924Z,101950.84
2023-01-09T20:23:49.293Z,101953.25
2023-01-09T20:26:57.386Z,101949.11
2023-01-09T20:30:03.032Z,101965.94
2023-01-09T20:33:09.459Z,101958.47
2023-01-09T20:36:17.716Z,101963.10
2023-01-09T20:39:25.607Z,101971.64
2023-01-09T20:42:31.411Z,101969.80
2023-01-09T20:45:37.694Z,101970.25
2023-01-09T20:48:44.157Z,101984.82
2023-01-09T20:51:51.291Z,101983.36
2023-01-09T20:55:00.494Z,101978.91
2023-01-09T20:58:07.346Z,101986.80
2023-01-09T21:01:16.414Z,101989.83
2023-01-09T21:04:22.313Z,101979.17
2023-01-09T21:07:22.110Z,101984.78
2023-01-09T21:10:11.101Z,101989.15
2023-01-09T21:13:05.075Z,101992.77
2023-01-09T21:15:51.692Z,101990.03
2023-01-09T21:18:45.631Z,101989.87
2023-01-09T21:21:46.167Z,101981.95
2023-01-09T21:24:50.601Z,101998.12
2023-01-09T21:27:58.915Z,101992.59
2023-01-09T21:31:04.620Z,101998.32
2023-01-09T21:34:11.526Z,101997.23
2023-01-09T21:37:17.496Z,101995.16
2023-01-09T21:40:24.293Z,101998.49
2023-01-09T21:43:50.706Z,101997.05
2023-01-09T21:47:02.301Z,101999.49
2023-01-09T21:50:07.070Z,102004.59
2023-01-09T21:53:12.727Z,102007.02
2023-01-09T21:56:18.702Z,102016.19
2023-01-09T21:59:23.635Z,102012.80
2023-01-09T22:02:34.422Z,102015.88
2023-01-09T22:05:39.586Z,102015.98
2023-01-09T22:08:45.203Z,102011.22
2023-01-09T22:11:51.965Z,102016.97
2023-01-09T22:14:57.687Z,102021.52
2023-01-09T22:18:04.705Z,102032.21
2023-01-09T22:21:12.369Z,102020.81
2023-01-09T22:24:17.784Z,102027.63
2023-01-09T22:27:23.366Z,102022.38
2023-01-09T22:30:30.330Z,102024.30
2023-01-09T22:33:36.120Z,102028.31
2023-01-09T22:36:44.979Z,102026.63
2023-01-09T22:39:51.240Z,102021.59
2023-01-09T22:42:58.050Z,102022.27
2023-01-09T22:46:04.276Z,102012.61
2023-01-09T22:49:12.526Z,102023.34
2023-01-09T22:52:19.885Z,102032.73
2023-01-09T22:55:26.831Z,102022.27
2023-01-09T22:58:32.034Z,102025.91
2023-01-09T23:01:39.204Z,102030.41
2023-01-09T23:04:46.412Z,102032.11
2023-01-09T23:07:53.701Z,102031.13
2023-01-09T23:10:59.674Z,102035.45
2023-01-09T23:14:05.988Z,102031.97
2023-01-09T23:17:12.622Z,102049.88
2023-01-09T23:20:20.090Z,102047.73
2023-01-09T23:23:27.889Z,102060.24
2023-01-09T23:26:32.713Z,102059.44
2023-01-09T23:29:38.802Z,102066.56
2023-01-09T23:32:45.174Z,102075.43
2023-01-09T23:35:51.920Z,102080.89
2023-01-09T23:38:57.493Z,102096.59
2023-01-09T23:42:20.530Z,102091.83
2023-01-09T23:45:26.155Z,102092.31
2023-01-09T23:48:32.682Z,102085.34
2023-01-09T23:51:39.280Z,102070.86
2023-01-09T23:54:45.139Z,102083.08
2023-01-09T23:57:51.924Z,102092.50
